sensor_id;sensor_type;location;lat;lon;timestamp;temperature;humidity
1391;DHT22;690;51.454;7.194;2023-01-05T00:02:05;13.80;99.90
1391;DHT22;690;51.454;7.194;2023-01-05T00:04:32;13.80;99.90
1391;DHT22;690;51.454;7.194;2023-01-05T00:06:59;13.80;99.90
1391;DHT22;690;51.454;7.194;2023-01-05T00:09:26;13.70;99.90
1391;DHT22;690;51.454;7.194;2023-01-05T00:11:53;13.70;99.90
1391;DHT22;690;51.454;7.194;2023-01-05T00:14:34;13.80;99.90
1391;DHT22;690;51.454;7.194;2023-01-05T00:17:21;13.80;99.90
1391;DHT22;690;51.454;7.194;2023-01-05T00:20:12;13.80;99.90
1391;DHT22;690;51.454;7.194;2023-01-05T00:22:57;13.70;99.90
1391;DHT22;690;51.454;7.194;2023-01-05T00:25:26;13.60;99.90
1391;DHT22;690;51.454;7.194;2023-01-05T00:27:54;13.60;99.90
1391;DHT22;690;51.454;7.194;2023-01-05T00:30:24;13.60;99.90
1391;DHT22;690;51.454;7.194;2023-01-05T00:32:53;13.50;99.90
1391;DHT22;690;51.454;7.194;2023-01-05T00:35:21;13.60;99.90
1391;DHT22;690;51.454;7.194;2023-01-05T00:37:48;13.60;99.90
1391;DHT22;690;51.454;7.194;2023-01-05T00:40:17;13.60;99.90
1391;DHT22;690;51.454;7.194;2023-01-05T00:42:45;13.60;99.90
1391;DHT22;690;51.454;7.194;2023-01-05T00:45:13;13.60;99.90
1391;DHT22;690;51.454;7.194;2023-01-05T00:47:40;13.60;99.90
1391;DHT22;690;51.454;7.194;2023-01-05T00:50:12;13.50;99.90
1391;DHT22;690;51.454;7.194;2023-01-05T00:52:40;13.50;99.90
1391;DHT22;690;51.454;7.194;2023-01-05T00:55:07;13.50;99.90
1391;DHT22;690;51.454;7.194;2023-01-05T00:57:34;13.50;99.90
1391;DHT22;690;51.454;7.194;2023-01-05T01:00:02;13.40;99.90
1391;DHT22;690;51.454;7.194;2023-01-05T01:02:30;13.50;99.90
1391;DHT22;690;51.454;7.194;2023-01-05T01:04:56;13.50;99.90
1391;DHT22;690;51.454;7.194;2023-01-05T01:07:25;13.50;99.90
1391;DHT22;690;51.454;7.194;2023-01-05T01:09:51;13.40;99.90
1391;DHT22;690;51.454;7.194;2023-01-05T01:12:19;13.50;99.90
1391;DHT22;690;51.454;7.194;2023-01-05T01:14:46;13.40;99.90
1391;DHT22;690;51.454;7.194;2023-01-05T01:17:14;13.40;99.90
1391;DHT22;690;51.454;7.194;2023-01-05T01:19:41;13.40;99.90
1391;DHT22;690;51.454;7.194;2023-01-05T01:22:07;13.30;99.90
1391;DHT22;690;51.454;7.194;2023-01-05T01:24:36;13.30;99.90
1391;DHT22;690;51.454;7.194;2023-01-05T01:27:03;13.30;99.90
1391;DHT22;690;51.454;7.194;2023-01-05T01:29:29;13.30;99.90
1391;DHT22;690;51.454;7.194;2023-01-05T01:31:57;13.30;99.90
1391;DHT22;690;51.454;7.194;2023-01-05T01:34:24;13.30;99.90
1391;DHT22;690;51.454;7.194;2023-01-05T01:36:53;13.30;99.90
1391;DHT22;690;51.454;7.194;2023-01-05T01:39:21;13.20;99.90
1391;DHT22;690;51.454;7.194;2023-01-05T01:41:49;13.30;99.90
1391;DHT22;690;51.454;7.194;2023-01-05T01:47:34;13.30;99.90
1391;DHT22;690;51.454;7.194;2023-01-05T01:50:07;13.30;99.90
1391;DHT22;690;51.454;7.194;2023-01-05T01:52:36;13.20;99.90
1391;DHT22;690;51.454;7.194;2023-01-05T01:55:05;13.20;99.90
1391;DHT22;690;51.454;7.194;2023-01-05T01:57:34;13.30;99.90
1391;DHT22;690;51.454;7.194;2023-01-05T02:00:04;13.30;99.90
1391;DHT22;690;51.454;7.194;2023-01-05T02:02:32;13.40;99.90
1391;DHT22;690;51.454;7.194;2023-01-05T02:05:03;13.40;99.90
1391;DHT22;690;51.454;7.194;2023-01-05T02:07:33;13.40;99.90
1391;DHT22;690;51.454;7.194;2023-01-05T02:10:02;13.40;99.90
1391;DHT22;690;51.454;7.194;2023-01-05T02:12:37;13.40;99.90
1391;DHT22;690;51.454;7.194;2023-01-05T02:15:16;13.40;99.90
1391;DHT22;690;51.454;7.194;2023-01-05T02:17:58;13.40;99.90
1391;DHT22;690;51.454;7.194;2023-01-05T02:20:48;13.40;99.90
1391;DHT22;690;51.454;7.194;2023-01-05T02:23:54;13.40;99.90
1391;DHT22;690;51.454;7.194;2023-01-05T02:32:40;13.20;99.90
1391;DHT22;690;51.454;7.194;2023-01-05T02:35:14;13.20;99.90
1391;DHT22;690;51.454;7.194;2023-01-05T02:37:46;13.10;99.90
1391;DHT22;690;51.454;7.194;2023-01-05T02:40:17;13.10;99.90
1391;DHT22;690;51.454;7.194;2023-01-05T02:42:48;13.10;99.90
1391;DHT22;690;51.454;7.194;2023-01-05T02:45:16;13.10;99.90
1391;DHT22;690;51.454;7.194;2023-01-05T02:47:45;13.10;99.90
1391;DHT22;690;51.454;7.194;2023-01-05T02:50:16;13.10;99.90
1391;DHT22;690;51.454;7.194;2023-01-05T02:52:55;13.10;99.90
1391;DHT22;690;51.454;7.194;2023-01-05T02:55:26;13.10;99.90
1391;DHT22;690;51.454;7.194;2023-01-05T02:57:58;13.10;99.90
1391;DHT22;690;51.454;7.194;2023-01-05T03:00:31;13.00;99.90
1391;DHT22;690;51.454;7.194;2023-01-05T03:03:06;13.10;99.90
1391;DHT22;690;51.454;7.194;2023-01-05T03:05:37;13.00;99.90
1391;DHT22;690;51.454;7.194;2023-01-05T03:08:08;13.00;99.90
1391;DHT22;690;51.454;7.194;2023-01-05T03:10:55;13.00;99.90
1391;DHT22;690;51.454;7.194;2023-01-05T03:13:45;13.00;99.90
1391;DHT22;690;51.454;7.194;2023-01-05T03:16:17;13.00;99.90
1391;DHT22;690;51.454;7.194;2023-01-05T03:18:48;13.00;99.90
1391;DHT22;690;51.454;7.194;2023-01-05T03:21:34;13.00;99.90
1391;DHT22;690;51.454;7.194;2023-01-05T03:24:20;13.00;99.90
1391;DHT22;690;51.454;7.194;2023-01-05T03:27:05;13.00;99.90
1391;DHT22;690;51.454;7.194;2023-01-05T03:29:51;12.90;99.90
1391;DHT22;690;51.454;7.194;2023-01-05T03:32:43;13.00;99.90
1391;DHT22;690;51.454;7.194;2023-01-05T03:35:31;13.00;99.90
1391;DHT22;690;51.454;7.194;2023-01-05T03:38:05;12.90;99.90
1391;DHT22;690;51.454;7.194;2023-01-05T03:40:35;12.90;99.90
1391;DHT22;690;51.454;7.194;2023-01-05T03:43:04;12.90;99.90
1391;DHT22;690;51.454;7.194;2023-01-05T03:45:35;12.90;99.90
1391;DHT22;690;51.454;7.194;2023-01-05T03:48:04;12.90;99.90
1391;DHT22;690;51.454;7.194;2023-01-05T03:50:32;12.90;99.90
1391;DHT22;690;51.454;7.194;2023-01-05T03:52:59;12.90;99.90
1391;DHT22;690;51.454;7.194;2023-01-05T03:55:26;12.90;99.90
1391;DHT22;690;51.454;7.194;2023-01-05T03:57:53;12.90;99.90
1391;DHT22;690;51.454;7.194;2023-01-05T04:00:20;12.80;99.90
1391;DHT22;690;51.454;7.194;2023-01-05T04:02:47;12.80;1.00
1391;DHT22;690;51.454;7.194;2023-01-05T04:05:14;12.70;1.00
1391;DHT22;690;51.454;7.194;2023-01-05T04:07:42;12.70;1.00
1391;DHT22;690;51.454;7.194;2023-01-05T04:10:09;12.60;1.00
1391;DHT22;690;51.454;7.194;2023-01-05T04:12:37;12.60;1.00
1391;DHT22;690;51.454;7.194;2023-01-05T04:15:04;12.60;1.00
1391;DHT22;690;51.454;7.194;2023-01-05T04:17:31;12.60;1.00
1391;DHT22;690;51.454;7.194;2023-01-05T04:19:58;12.60;1.00
1391;DHT22;690;51.454;7.194;2023-01-05T04:22:25;12.60;48.60
1391;DHT22;690;51.454;7.194;2023-01-05T04:24:53;12.50;99.90
1391;DHT22;690;51.454;7.194;2023-01-05T04:27:20;12.50;99.90
1391;DHT22;690;51.454;7.194;2023-01-05T04:29:47;12.50;99.90
1391;DHT22;690;51.454;7.194;2023-01-05T04:32:14;12.50;99.90
1391;DHT22;690;51.454;7.194;2023-01-05T04:34:41;12.50;99.90
1391;DHT22;690;51.454;7.194;2023-01-05T04:37:08;12.40;1.00
1391;DHT22;690;51.454;7.194;2023-01-05T04:39:34;12.40;1.00
1391;DHT22;690;51.454;7.194;2023-01-05T04:42:03;12.40;1.00
1391;DHT22;690;51.454;7.194;2023-01-05T04:44:30;12.40;1.00
1391;DHT22;690;51.454;7.194;2023-01-05T04:46:56;12.40;1.00
1391;DHT22;690;51.454;7.194;2023-01-05T04:49:23;12.40;99.90
1391;DHT22;690;51.454;7.194;2023-01-05T04:51:50;12.40;99.90
1391;DHT22;690;51.454;7.194;2023-01-05T04:54:17;12.30;99.90
1391;DHT22;690;51.454;7.194;2023-01-05T04:56:44;12.30;99.90
1391;DHT22;690;51.454;7.194;2023-01-05T04:59:12;12.30;99.90
1391;DHT22;690;51.454;7.194;2023-01-05T05:01:39;12.30;99.90
1391;DHT22;690;51.454;7.194;2023-01-05T05:04:05;12.40;99.90
1391;DHT22;690;51.454;7.194;2023-01-05T05:06:32;12.40;99.90
1391;DHT22;690;51.454;7.194;2023-01-05T05:08:59;12.30;99.90
1391;DHT22;690;51.454;7.194;2023-01-05T05:11:26;12.40;99.90
1391;DHT22;690;51.454;7.194;2023-01-05T05:13:53;12.40;99.90
1391;DHT22;690;51.454;7.194;2023-01-05T05:16:21;12.30;99.90
1391;DHT22;690;51.454;7.194;2023-01-05T05:18:48;12.40;99.90
1391;DHT22;690;51.454;7.194;2023-01-05T05:21:15;12.40;99.90
1391;DHT22;690;51.454;7.194;2023-01-05T05:23:42;12.40;1.00
1391;DHT22;690;51.454;7.194;2023-01-05T05:26:08;12.40;1.00
1391;DHT22;690;51.454;7.194;2023-01-05T05:28:35;12.40;1.00
1391;DHT22;690;51.454;7.194;2023-01-05T05:31:02;12.40;1.00
1391;DHT22;690;51.454;7.194;2023-01-05T05:33:30;12.40;1.00
1391;DHT22;690;51.454;7.194;2023-01-05T05:35:57;12.40;1.00
1391;DHT22;690;51.454;7.194;2023-01-05T05:38:24;12.40;1.00
1391;DHT22;690;51.454;7.194;2023-01-05T05:40:51;12.40;1.00
1391;DHT22;690;51.454;7.194;2023-01-05T05:43:18;12.40;1.00
1391;DHT22;690;51.454;7.194;2023-01-05T05:45:44;12.40;1.00
1391;DHT22;690;51.454;7.194;2023-01-05T05:48:11;12.30;66.20
1391;DHT22;690;51.454;7.194;2023-01-05T05:50:39;12.40;68.80
1391;DHT22;690;51.454;7.194;2023-01-05T05:53:06;12.30;99.90
1391;DHT22;690;51.454;7.194;2023-01-05T05:55:33;12.30;99.90
1391;DHT22;690;51.454;7.194;2023-01-05T05:58:00;12.20;1.00
1391;DHT22;690;51.454;7.194;2023-01-05T06:00:27;12.20;1.00
1391;DHT22;690;51.454;7.194;2023-01-05T06:02:54;12.20;1.00
1391;DHT22;690;51.454;7.194;2023-01-05T06:05:23;12.20;11.60
1391;DHT22;690;51.454;7.194;2023-01-05T06:07:51;12.20;95.50
1391;DHT22;690;51.454;7.194;2023-01-05T06:10:17;12.20;99.90
1391;DHT22;690;51.454;7.194;2023-01-05T06:12:44;12.20;99.90
1391;DHT22;690;51.454;7.194;2023-01-05T06:15:11;12.20;99.90
1391;DHT22;690;51.454;7.194;2023-01-05T06:17:38;12.20;99.90
1391;DHT22;690;51.454;7.194;2023-01-05T06:20:06;12.20;1.00
1391;DHT22;690;51.454;7.194;2023-01-05T06:22:34;12.10;1.00
1391;DHT22;690;51.454;7.194;2023-01-05T06:25:02;12.10;1.00
1391;DHT22;690;51.454;7.194;2023-01-05T06:27:29;12.00;1.00
1391;DHT22;690;51.454;7.194;2023-01-05T06:29:56;12.00;1.00
1391;DHT22;690;51.454;7.194;2023-01-05T06:32:23;12.10;1.00
1391;DHT22;690;51.454;7.194;2023-01-05T06:34:49;12.10;1.00
1391;DHT22;690;51.454;7.194;2023-01-05T06:37:16;12.00;18.70
1391;DHT22;690;51.454;7.194;2023-01-05T06:39:43;12.10;92.00
1391;DHT22;690;51.454;7.194;2023-01-05T06:42:11;12.10;99.90
1391;DHT22;690;51.454;7.194;2023-01-05T06:44:38;12.10;92.00
1391;DHT22;690;51.454;7.194;2023-01-05T06:47:07;12.00;99.90
1391;DHT22;690;51.454;7.194;2023-01-05T06:49:34;12.00;99.90
1391;DHT22;690;51.454;7.194;2023-01-05T06:52:00;12.10;99.90
1391;DHT22;690;51.454;7.194;2023-01-05T06:54:27;12.10;99.90
1391;DHT22;690;51.454;7.194;2023-01-05T06:56:54;12.10;99.90
1391;DHT22;690;51.454;7.194;2023-01-05T06:59:22;12.10;99.90
1391;DHT22;690;51.454;7.194;2023-01-05T07:01:49;12.00;99.90
1391;DHT22;690;51.454;7.194;2023-01-05T07:04:16;12.10;99.90
1391;DHT22;690;51.454;7.194;2023-01-05T07:06:43;12.00;99.90
1391;DHT22;690;51.454;7.194;2023-01-05T07:09:10;12.00;99.90
1391;DHT22;690;51.454;7.194;2023-01-05T07:11:36;12.00;99.90
1391;DHT22;690;51.454;7.194;2023-01-05T07:14:03;12.00;99.90
1391;DHT22;690;51.454;7.194;2023-01-05T07:16:31;12.00;99.90
1391;DHT22;690;51.454;7.194;2023-01-05T07:18:58;11.90;99.90
1391;DHT22;690;51.454;7.194;2023-01-05T07:21:25;11.90;99.90
1391;DHT22;690;51.454;7.194;2023-01-05T07:23:52;11.90;99.90
1391;DHT22;690;51.454;7.194;2023-01-05T07:26:19;11.90;99.90
1391;DHT22;690;51.454;7.194;2023-01-05T07:28:46;11.90;99.90
1391;DHT22;690;51.454;7.194;2023-01-05T07:31:13;11.90;99.90
1391;DHT22;690;51.454;7.194;2023-01-05T07:33:41;11.90;99.90
1391;DHT22;690;51.454;7.194;2023-01-05T07:36:08;11.90;1.00
1391;DHT22;690;51.454;7.194;2023-01-05T07:38:35;11.90;1.00
1391;DHT22;690;51.454;7.194;2023-01-05T07:41:02;11.90;1.00
1391;DHT22;690;51.454;7.194;2023-01-05T07:43:29;11.90;1.00
1391;DHT22;690;51.454;7.194;2023-01-05T07:45:57;11.90;1.00
1391;DHT22;690;51.454;7.194;2023-01-05T07:48:23;11.90;1.00
1391;DHT22;690;51.454;7.194;2023-01-05T07:50:52;11.90;1.00
1391;DHT22;690;51.454;7.194;2023-01-05T07:53:19;12.00;1.00
1391;DHT22;690;51.454;7.194;2023-01-05T07:55:54;12.00;1.00
1391;DHT22;690;51.454;7.194;2023-01-05T07:58:22;12.00;1.00
1391;DHT22;690;51.454;7.194;2023-01-05T08:00:49;11.90;1.00
1391;DHT22;690;51.454;7.194;2023-01-05T08:03:16;11.90;1.00
1391;DHT22;690;51.454;7.194;2023-01-05T08:05:43;11.90;1.00
1391;DHT22;690;51.454;7.194;2023-01-05T08:08:11;11.90;1.00
1391;DHT22;690;51.454;7.194;2023-01-05T08:10:38;11.90;1.00
1391;DHT22;690;51.454;7.194;2023-01-05T08:13:06;11.90;1.00
1391;DHT22;690;51.454;7.194;2023-01-05T08:15:53;11.90;1.00
1391;DHT22;690;51.454;7.194;2023-01-05T08:18:21;11.90;1.00
1391;DHT22;690;51.454;7.194;2023-01-05T08:20:52;11.90;1.00
1391;DHT22;690;51.454;7.194;2023-01-05T08:23:21;11.90;1.00
1391;DHT22;690;51.454;7.194;2023-01-05T08:25:48;11.90;1.00
1391;DHT22;690;51.454;7.194;2023-01-05T08:28:15;12.00;1.00
1391;DHT22;690;51.454;7.194;2023-01-05T08:30:42;12.00;1.00
1391;DHT22;690;51.454;7.194;2023-01-05T08:33:09;12.00;1.00
1391;DHT22;690;51.454;7.194;2023-01-05T08:35:39;12.10;1.00
1391;DHT22;690;51.454;7.194;2023-01-05T08:38:06;12.10;1.00
1391;DHT22;690;51.454;7.194;2023-01-05T08:40:35;12.10;1.00
1391;DHT22;690;51.454;7.194;2023-01-05T08:43:02;12.20;1.00
1391;DHT22;690;51.454;7.194;2023-01-05T08:45:29;12.20;1.00
1391;DHT22;690;51.454;7.194;2023-01-05T08:47:56;12.10;1.00
1391;DHT22;690;51.454;7.194;2023-01-05T08:50:23;12.20;1.00
1391;DHT22;690;51.454;7.194;2023-01-05T08:52:49;12.20;1.00
1391;DHT22;690;51.454;7.194;2023-01-05T08:55:16;12.20;1.00
1391;DHT22;690;51.454;7.194;2023-01-05T08:57:45;12.20;1.00
1391;DHT22;690;51.454;7.194;2023-01-05T09:00:12;12.20;1.00
1391;DHT22;690;51.454;7.194;2023-01-05T09:02:41;12.20;1.00
1391;DHT22;690;51.454;7.194;2023-01-05T09:05:09;12.20;1.00
1391;DHT22;690;51.454;7.194;2023-01-05T09:07:36;12.20;1.00
1391;DHT22;690;51.454;7.194;2023-01-05T09:10:04;12.30;1.00
1391;DHT22;690;51.454;7.194;2023-01-05T09:12:31;12.20;1.00
1391;DHT22;690;51.454;7.194;2023-01-05T09:14:59;12.20;1.00
1391;DHT22;690;51.454;7.194;2023-01-05T09:17:26;12.30;1.00
1391;DHT22;690;51.454;7.194;2023-01-05T09:19:53;12.30;1.00
1391;DHT22;690;51.454;7.194;2023-01-05T09:22:20;12.30;1.00
1391;DHT22;690;51.454;7.194;2023-01-05T09:24:46;12.30;1.00
1391;DHT22;690;51.454;7.194;2023-01-05T09:27:13;12.30;1.00
1391;DHT22;690;51.454;7.194;2023-01-05T09:29:40;12.30;1.00
1391;DHT22;690;51.454;7.194;2023-01-05T09:32:08;12.30;1.00
1391;DHT22;690;51.454;7.194;2023-01-05T09:34:36;12.40;1.00
1391;DHT22;690;51.454;7.194;2023-01-05T09:37:02;12.40;1.00
1391;DHT22;690;51.454;7.194;2023-01-05T09:39:29;12.40;1.00
1391;DHT22;690;51.454;7.194;2023-01-05T09:41:59;12.30;1.00
1391;DHT22;690;51.454;7.194;2023-01-05T09:44:29;12.30;1.00
1391;DHT22;690;51.454;7.194;2023-01-05T09:47:00;12.40;1.00
1391;DHT22;690;51.454;7.194;2023-01-05T09:49:30;12.40;1.00
1391;DHT22;690;51.454;7.194;2023-01-05T09:52:00;12.40;1.00
1391;DHT22;690;51.454;7.194;2023-01-05T09:54:30;12.40;1.00
1391;DHT22;690;51.454;7.194;2023-01-05T09:56:59;12.40;1.00
1391;DHT22;690;51.454;7.194;2023-01-05T09:59:29;12.50;1.00
1391;DHT22;690;51.454;7.194;2023-01-05T10:01:59;12.50;1.00
1391;DHT22;690;51.454;7.194;2023-01-05T10:04:29;12.60;1.00
1391;DHT22;690;51.454;7.194;2023-01-05T10:07:00;12.60;1.00
1391;DHT22;690;51.454;7.194;2023-01-05T10:09:31;12.50;1.00
1391;DHT22;690;51.454;7.194;2023-01-05T10:12:03;12.60;1.00
1391;DHT22;690;51.454;7.194;2023-01-05T10:14:52;12.60;1.00
1391;DHT22;690;51.454;7.194;2023-01-05T10:17:22;12.70;1.00
1391;DHT22;690;51.454;7.194;2023-01-05T10:19:50;12.70;99.90
1391;DHT22;690;51.454;7.194;2023-01-05T10:22:30;12.70;99.90
1391;DHT22;690;51.454;7.194;2023-01-05T10:25:04;12.60;99.90
1391;DHT22;690;51.454;7.194;2023-01-05T10:27:39;12.70;99.90
1391;DHT22;690;51.454;7.194;2023-01-05T10:30:15;12.70;99.90
1391;DHT22;690;51.454;7.194;2023-01-05T10:32:55;12.80;99.90
1391;DHT22;690;51.454;7.194;2023-01-05T10:35:37;12.80;99.90
1391;DHT22;690;51.454;7.194;2023-01-05T10:38:16;12.80;99.90
1391;DHT22;690;51.454;7.194;2023-01-05T10:40:55;12.80;99.90
1391;DHT22;690;51.454;7.194;2023-01-05T10:43:36;12.80;99.90
1391;DHT22;690;51.454;7.194;2023-01-05T10:46:09;12.80;99.90
1391;DHT22;690;51.454;7.194;2023-01-05T10:48:37;12.80;99.90
1391;DHT22;690;51.454;7.194;2023-01-05T10:51:06;12.80;99.90
1391;DHT22;690;51.454;7.194;2023-01-05T10:53:36;12.80;99.90
1391;DHT22;690;51.454;7.194;2023-01-05T10:56:05;12.80;99.90
1391;DHT22;690;51.454;7.194;2023-01-05T10:58:33;12.80;99.90
1391;DHT22;690;51.454;7.194;2023-01-05T11:01:04;12.80;99.90
1391;DHT22;690;51.454;7.194;2023-01-05T11:03:38;12.80;99.90
1391;DHT22;690;51.454;7.194;2023-01-05T11:06:07;12.90;1.00
1391;DHT22;690;51.454;7.194;2023-01-05T11:08:44;12.80;1.00
1391;DHT22;690;51.454;7.194;2023-01-05T11:11:19;12.80;1.00
1391;DHT22;690;51.454;7.194;2023-01-05T11:13:48;12.80;1.00
1391;DHT22;690;51.454;7.194;2023-01-05T11:16:18;12.80;1.00
1391;DHT22;690;51.454;7.194;2023-01-05T11:18:49;12.80;1.00
1391;DHT22;690;51.454;7.194;2023-01-05T11:21:20;12.80;1.00
1391;DHT22;690;51.454;7.194;2023-01-05T11:23:48;12.80;1.00
1391;DHT22;690;51.454;7.194;2023-01-05T11:26:25;12.90;1.00
1391;DHT22;690;51.454;7.194;2023-01-05T11:29:08;12.90;1.00
1391;DHT22;690;51.454;7.194;2023-01-05T11:31:39;12.90;99.90
1391;DHT22;690;51.454;7.194;2023-01-05T11:34:14;13.00;99.90
1391;DHT22;690;51.454;7.194;2023-01-05T11:36:50;13.00;99.90
1391;DHT22;690;51.454;7.194;2023-01-05T11:39:25;13.00;1.00
1391;DHT22;690;51.454;7.194;2023-01-05T11:42:14;13.10;1.00
1391;DHT22;690;51.454;7.194;2023-01-05T11:44:43;13.10;99.90
1391;DHT22;690;51.454;7.194;2023-01-05T11:47:22;13.10;99.90
1391;DHT22;690;51.454;7.194;2023-01-05T11:50:01;13.10;1.00
1391;DHT22;690;51.454;7.194;2023-01-05T11:52:34;13.10;1.00
1391;DHT22;690;51.454;7.194;2023-01-05T11:55:30;13.10;1.00
1391;DHT22;690;51.454;7.194;2023-01-05T11:58:14;13.10;1.00
1391;DHT22;690;51.454;7.194;2023-01-05T12:01:01;13.20;99.90
1391;DHT22;690;51.454;7.194;2023-01-05T12:03:43;13.30;99.90
1391;DHT22;690;51.454;7.194;2023-01-05T12:06:26;13.30;99.90
1391;DHT22;690;51.454;7.194;2023-01-05T12:09:00;13.30;81.50
1391;DHT22;690;51.454;7.194;2023-01-05T12:11:33;13.30;1.00
1391;DHT22;690;51.454;7.194;2023-01-05T12:14:14;13.40;1.00
1391;DHT22;690;51.454;7.194;2023-01-05T12:16:45;13.40;1.00
1391;DHT22;690;51.454;7.194;2023-01-05T12:19:27;13.40;1.00
1391;DHT22;690;51.454;7.194;2023-01-05T12:22:14;13.40;99.90
1391;DHT22;690;51.454;7.194;2023-01-05T12:24:58;13.40;99.90
1391;DHT22;690;51.454;7.194;2023-01-05T12:27:42;13.40;99.90
1391;DHT22;690;51.454;7.194;2023-01-05T12:30:24;13.50;99.90
1391;DHT22;690;51.454;7.194;2023-01-05T12:33:12;13.50;99.90
1391;DHT22;690;51.454;7.194;2023-01-05T12:36:03;13.50;99.90
1391;DHT22;690;51.454;7.194;2023-01-05T12:38:43;13.50;99.90
1391;DHT22;690;51.454;7.194;2023-01-05T12:41:29;13.60;99.90
1391;DHT22;690;51.454;7.194;2023-01-05T12:44:13;13.60;99.90
1391;DHT22;690;51.454;7.194;2023-01-05T12:46:51;13.60;99.90
1391;DHT22;690;51.454;7.194;2023-01-05T12:49:26;13.70;82.20
1391;DHT22;690;51.454;7.194;2023-01-05T12:52:01;13.70;11.50
1391;DHT22;690;51.454;7.194;2023-01-05T12:54:30;13.70;1.00
1391;DHT22;690;51.454;7.194;2023-01-05T12:57:06;13.70;1.00
1391;DHT22;690;51.454;7.194;2023-01-05T12:59:38;13.70;1.00
1391;DHT22;690;51.454;7.194;2023-01-05T13:02:19;13.60;1.00
1391;DHT22;690;51.454;7.194;2023-01-05T13:04:53;13.70;1.00
1391;DHT22;690;51.454;7.194;2023-01-05T13:07:29;13.70;1.00
1391;DHT22;690;51.454;7.194;2023-01-05T13:09:59;13.70;1.00
1391;DHT22;690;51.454;7.194;2023-01-05T13:12:30;13.80;1.00
1391;DHT22;690;51.454;7.194;2023-01-05T13:15:03;13.80;1.00
1391;DHT22;690;51.454;7.194;2023-01-05T13:17:33;13.80;1.00
1391;DHT22;690;51.454;7.194;2023-01-05T13:20:04;13.80;1.00
1391;DHT22;690;51.454;7.194;2023-01-05T13:22:39;13.90;1.00
1391;DHT22;690;51.454;7.194;2023-01-05T13:25:16;13.90;1.00
1391;DHT22;690;51.454;7.194;2023-01-05T13:27:44;13.90;1.00
1391;DHT22;690;51.454;7.194;2023-01-05T13:30:19;13.90;1.00
1391;DHT22;690;51.454;7.194;2023-01-05T13:33:07;13.90;99.90
1391;DHT22;690;51.454;7.194;2023-01-05T13:35:47;13.90;1.00
1391;DHT22;690;51.454;7.194;2023-01-05T13:41:51;14.10;99.90
1391;DHT22;690;51.454;7.194;2023-01-05T13:47:42;14.10;99.90
1391;DHT22;690;51.454;7.194;2023-01-05T13:50:45;14.10;99.90
1391;DHT22;690;51.454;7.194;2023-01-05T13:53:17;14.10;99.90
1391;DHT22;690;51.454;7.194;2023-01-05T13:55:48;14.10;99.90
1391;DHT22;690;51.454;7.194;2023-01-05T13:58:31;14.10;99.90
1391;DHT22;690;51.454;7.194;2023-01-05T14:01:01;14.00;99.90
1391;DHT22;690;51.454;7.194;2023-01-05T14:03:32;14.00;99.90
1391;DHT22;690;51.454;7.194;2023-01-05T14:06:02;14.00;99.90
1391;DHT22;690;51.454;7.194;2023-01-05T14:08:35;13.90;99.90
1391;DHT22;690;51.454;7.194;2023-01-05T14:11:09;13.90;99.90
1391;DHT22;690;51.454;7.194;2023-01-05T14:13:51;13.80;99.90
1391;DHT22;690;51.454;7.194;2023-01-05T14:16:54;13.80;99.90
1391;DHT22;690;51.454;7.194;2023-01-05T14:22:34;13.80;99.90
1391;DHT22;690;51.454;7.194;2023-01-05T14:28:42;13.70;99.90
1391;DHT22;690;51.454;7.194;2023-01-05T14:31:44;13.70;99.90
1391;DHT22;690;51.454;7.194;2023-01-05T14:34:15;13.70;99.90
1391;DHT22;690;51.454;7.194;2023-01-05T14:36:48;13.70;99.90
1391;DHT22;690;51.454;7.194;2023-01-05T14:39:24;13.70;99.90
1391;DHT22;690;51.454;7.194;2023-01-05T14:41:59;13.70;95.70
1391;DHT22;690;51.454;7.194;2023-01-05T14:44:30;13.70;77.50
1391;DHT22;690;51.454;7.194;2023-01-05T14:46:58;13.70;55.70
1391;DHT22;690;51.454;7.194;2023-01-05T14:49:30;13.70;44.60
1391;DHT22;690;51.454;7.194;2023-01-05T14:52:01;13.70;35.40
1391;DHT22;690;51.454;7.194;2023-01-05T14:54:36;13.70;10.10
1391;DHT22;690;51.454;7.194;2023-01-05T14:57:35;13.70;6.30
1391;DHT22;690;51.454;7.194;2023-01-05T15:00:10;13.70;7.10
1391;DHT22;690;51.454;7.194;2023-01-05T15:02:45;13.60;1.00
1391;DHT22;690;51.454;7.194;2023-01-05T15:05:16;13.70;1.00
1391;DHT22;690;51.454;7.194;2023-01-05T15:07:50;13.60;1.00
1391;DHT22;690;51.454;7.194;2023-01-05T15:16:42;13.50;1.00
1391;DHT22;690;51.454;7.194;2023-01-05T15:19:28;13.40;1.00
1391;DHT22;690;51.454;7.194;2023-01-05T15:22:08;13.40;1.00
1391;DHT22;690;51.454;7.194;2023-01-05T15:25:09;13.40;1.00
1391;DHT22;690;51.454;7.194;2023-01-05T15:27:54;13.30;1.00
1391;DHT22;690;51.454;7.194;2023-01-05T15:30:42;13.30;1.00
1391;DHT22;690;51.454;7.194;2023-01-05T15:33:14;13.30;1.00
1391;DHT22;690;51.454;7.194;2023-01-05T15:35:46;13.30;1.00
1391;DHT22;690;51.454;7.194;2023-01-05T15:38:24;13.30;1.00
1391;DHT22;690;51.454;7.194;2023-01-05T15:40:59;13.30;1.00
1391;DHT22;690;51.454;7.194;2023-01-05T15:43:27;13.30;1.00
1391;DHT22;690;51.454;7.194;2023-01-05T15:45:54;13.30;1.00
1391;DHT22;690;51.454;7.194;2023-01-05T15:48:26;13.30;1.00
1391;DHT22;690;51.454;7.194;2023-01-05T15:50:56;13.30;7.20
1391;DHT22;690;51.454;7.194;2023-01-05T15:53:27;13.20;24.80
1391;DHT22;690;51.454;7.194;2023-01-05T15:55:55;13.20;26.80
1391;DHT22;690;51.454;7.194;2023-01-05T15:58:24;13.20;37.10
1391;DHT22;690;51.454;7.194;2023-01-05T16:01:05;13.20;43.30
1391;DHT22;690;51.454;7.194;2023-01-05T16:03:34;13.10;54.10
1391;DHT22;690;51.454;7.194;2023-01-05T16:06:03;13.10;70.40
1391;DHT22;690;51.454;7.194;2023-01-05T16:08:38;13.10;70.50
1391;DHT22;690;51.454;7.194;2023-01-05T16:11:08;13.10;90.50
1391;DHT22;690;51.454;7.194;2023-01-05T16:13:39;13.10;95.70
1391;DHT22;690;51.454;7.194;2023-01-05T16:16:12;13.00;99.90
1391;DHT22;690;51.454;7.194;2023-01-05T16:18:49;13.00;99.90
1391;DHT22;690;51.454;7.194;2023-01-05T16:21:22;13.10;99.90
1391;DHT22;690;51.454;7.194;2023-01-05T16:23:53;13.00;97.40
1391;DHT22;690;51.454;7.194;2023-01-05T16:26:21;13.00;99.10
1391;DHT22;690;51.454;7.194;2023-01-05T16:28:49;13.00;99.90
1391;DHT22;690;51.454;7.194;2023-01-05T16:31:25;13.00;99.90
1391;DHT22;690;51.454;7.194;2023-01-05T16:34:01;13.00;99.90
1391;DHT22;690;51.454;7.194;2023-01-05T16:36:28;12.90;99.90
1391;DHT22;690;51.454;7.194;2023-01-05T16:39:12;12.90;99.90
1391;DHT22;690;51.454;7.194;2023-01-05T16:41:42;12.90;99.90
1391;DHT22;690;51.454;7.194;2023-01-05T16:44:23;12.90;99.90
1391;DHT22;690;51.454;7.194;2023-01-05T16:47:04;12.90;99.90
1391;DHT22;690;51.454;7.194;2023-01-05T16:49:34;12.90;99.90
1391;DHT22;690;51.454;7.194;2023-01-05T16:52:03;12.80;99.90
1391;DHT22;690;51.454;7.194;2023-01-05T16:54:34;12.90;99.90
1391;DHT22;690;51.454;7.194;2023-01-05T16:57:29;12.80;99.90
1391;DHT22;690;51.454;7.194;2023-01-05T16:59:56;12.80;99.90
1391;DHT22;690;51.454;7.194;2023-01-05T17:02:45;12.90;99.90
1391;DHT22;690;51.454;7.194;2023-01-05T17:05:16;12.80;99.90
1391;DHT22;690;51.454;7.194;2023-01-05T17:07:47;12.90;99.90
1391;DHT22;690;51.454;7.194;2023-01-05T17:10:20;12.90;99.90
1391;DHT22;690;51.454;7.194;2023-01-05T17:12:59;12.90;99.90
1391;DHT22;690;51.454;7.194;2023-01-05T17:15:29;12.90;99.90
1391;DHT22;690;51.454;7.194;2023-01-05T17:17:56;12.90;99.90
1391;DHT22;690;51.454;7.194;2023-01-05T17:20:26;12.90;99.90
1391;DHT22;690;51.454;7.194;2023-01-05T17:22:54;12.80;99.90
1391;DHT22;690;51.454;7.194;2023-01-05T17:25:26;12.80;99.90